Time;durP1;ratioP1;P1;durP2;ratioP2;P2;SDS_P1;SDS_P2;PMS_P1;PMS_P2;Temp;Humidity;BMP_temperature;BMP_pressure;BME280_temperature;BME280_humidity;BME280_pressure;Samples;Min_cycle;Max_cycle;Signal;HPM_P1;HPM_P2
2023/10/25 00:01:23;;;;;;;3.17;1.10;;;11.90;82.80;;;;;;5067673;28;20032;-64
2023/10/25 00:03:49;;;;;;;0.88;0.50;;;11.90;82.70;;;;;;5064498;28;20033;-64
2023/10/25 00:06:15;;;;;;;1.17;1.00;;;11.90;82.70;;;;;;5064819;28;20044;-64
2023/10/25 00:08:40;;;;;;;0.82;0.80;;;11.90;82.80;;;;;;5066077;28;20028;-64
2023/10/25 00:11:09;;;;;;;0.77;0.75;;;11.80;82.70;;;;;;5063936;28;20041;-64
2023/10/25 00:13:35;;;;;;;1.65;0.98;;;11.80;82.80;;;;;;5052533;28;20072;-64
2023/10/25 00:16:02;;;;;;;1.27;0.95;;;11.80;82.90;;;;;;5066906;28;20024;-64
2023/10/25 00:18:29;;;;;;;2.17;1.00;;;11.80;82.90;;;;;;5065183;28;20269;-64
2023/10/25 00:20:55;;;;;;;3.67;1.08;;;11.80;82.80;;;;;;5055643;28;20079;-64
2023/10/25 00:23:21;;;;;;;1.05;0.70;;;11.70;82.70;;;;;;5056501;28;20068;-64
2023/10/25 00:25:48;;;;;;;1.05;0.68;;;11.70;82.70;;;;;;5057020;28;20107;-64
2023/10/25 00:28:14;;;;;;;1.30;0.82;;;11.70;82.70;;;;;;5063877;28;20063;-70
2023/10/25 00:30:40;;;;;;;0.70;0.70;;;11.70;82.70;;;;;;5066487;28;20059;-71
2023/10/25 00:33:06;;;;;;;1.65;0.88;;;11.60;82.50;;;;;;5071446;28;20028;-71
2023/10/25 00:35:31;;;;;;;0.95;0.70;;;11.60;82.50;;;;;;5088757;28;20027;-70
2023/10/25 00:37:57;;;;;;;1.23;0.85;;;11.60;82.50;;;;;;5064219;28;20094;-71
2023/10/25 00:40:23;;;;;;;2.13;1.00;;;11.60;82.50;;;;;;5067855;28;20119;-71
2023/10/25 00:42:49;;;;;;;1.20;0.90;;;11.50;82.40;;;;;;5064652;28;20456;-71
2023/10/25 00:45:15;;;;;;;0.73;0.70;;;11.50;82.40;;;;;;5071033;28;20531;-64
2023/10/25 00:47:43;;;;;;;1.10;1.00;;;11.50;82.40;;;;;;5069550;28;20123;-70
2023/10/25 00:50:09;;;;;;;1.95;1.05;;;11.40;82.30;;;;;;5065159;28;20367;-71
2023/10/25 00:52:36;;;;;;;3.92;0.80;;;11.50;82.30;;;;;;5070541;28;20043;-71
2023/10/25 00:55:03;;;;;;;0.85;0.85;;;11.40;82.20;;;;;;5061466;28;20060;-71
2023/10/25 00:57:30;;;;;;;0.73;0.70;;;11.40;82.10;;;;;;5061351;28;20116;-71
2023/10/25 00:59:56;;;;;;;1.10;0.95;;;11.40;82.00;;;;;;5062669;28;20399;-71
2023/10/25 01:02:22;;;;;;;1.27;1.10;;;11.40;82.00;;;;;;5062267;28;20025;-70
2023/10/25 01:04:48;;;;;;;1.25;1.02;;;11.30;82.00;;;;;;5065438;28;20515;-71
2023/10/25 01:07:13;;;;;;;2.30;1.15;;;11.30;82.00;;;;;;5069625;28;20116;-70
2023/10/25 01:09:39;;;;;;;2.85;1.48;;;11.30;82.00;;;;;;5066437;28;20161;-70
2023/10/25 01:12:05;;;;;;;1.35;1.05;;;11.30;81.90;;;;;;5066462;28;20064;-70
2023/10/25 01:14:31;;;;;;;1.17;1.00;;;11.20;81.90;;;;;;5051331;28;20049;-71
2023/10/25 01:16:57;;;;;;;1.88;1.13;;;11.20;81.80;;;;;;5068805;28;20029;-70
2023/10/25 01:19:22;;;;;;;1.08;0.98;;;11.20;81.60;;;;;;5071163;28;20399;-70
2023/10/25 01:21:48;;;;;;;1.52;0.88;;;11.10;81.70;;;;;;5069384;28;20803;-70
2023/10/25 01:24:14;;;;;;;6.50;1.65;;;11.10;81.70;;;;;;5073003;28;20033;-70
2023/10/25 01:26:41;;;;;;;2.15;1.20;;;11.10;81.70;;;;;;5070750;28;20089;-70
2023/10/25 01:29:06;;;;;;;2.70;1.10;;;11.10;81.70;;;;;;5064403;28;20445;-71
2023/10/25 01:31:32;;;;;;;1.98;1.00;;;11.00;81.70;;;;;;5069768;28;20514;-70
2023/10/25 01:33:57;;;;;;;3.17;0.88;;;11.00;81.70;;;;;;5043228;28;20133;-70
2023/10/25 01:36:23;;;;;;;1.88;1.00;;;10.90;81.70;;;;;;5066280;28;20388;-70
2023/10/25 01:38:49;;;;;;;0.90;0.90;;;10.90;81.70;;;;;;5069318;28;20028;-70
2023/10/25 01:41:17;;;;;;;1.38;0.80;;;10.90;81.80;;;;;;5073529;28;20024;-70
2023/10/25 01:43:43;;;;;;;0.75;0.60;;;10.90;81.70;;;;;;5060952;28;20073;-71
2023/10/25 01:46:09;;;;;;;1.23;0.85;;;10.90;81.70;;;;;;5072904;28;20111;-70
2023/10/25 01:48:37;;;;;;;1.17;1.08;;;10.90;81.70;;;;;;5075105;28;20119;-70
2023/10/25 01:51:06;;;;;;;2.65;1.08;;;10.80;81.60;;;;;;5071187;28;20020;-70
2023/10/25 01:53:33;;;;;;;1.25;0.93;;;10.80;81.70;;;;;;5072789;28;20032;-71
2023/10/25 01:55:59;;;;;;;1.30;1.05;;;10.80;81.80;;;;;;5069937;28;20121;-70
2023/10/25 01:58:25;;;;;;;1.25;0.85;;;10.80;81.80;;;;;;5071528;28;20398;-71
2023/10/25 02:00:50;;;;;;;1.80;1.02;;;10.80;81.70;;;;;;5074983;28;20035;-70
2023/10/25 02:03:16;;;;;;;2.28;0.95;;;10.70;81.70;;;;;;5072684;28;20025;-70
2023/10/25 02:05:42;;;;;;;0.77;0.60;;;10.70;81.80;;;;;;5066768;28;20407;-70
2023/10/25 02:08:07;;;;;;;2.00;1.23;;;10.70;81.80;;;;;;5070210;28;20054;-70
2023/10/25 02:10:36;;;;;;;1.48;0.80;;;10.70;81.70;;;;;;5076696;28;20041;-70
2023/10/25 02:13:01;;;;;;;0.73;0.70;;;10.70;81.80;;;;;;5081886;28;20033;-70
2023/10/25 02:15:28;;;;;;;1.40;1.30;;;10.60;81.80;;;;;;5069736;28;20043;-70
2023/10/25 02:17:54;;;;;;;2.50;0.82;;;10.60;81.70;;;;;;5079777;28;20478;-70
2023/10/25 02:20:19;;;;;;;1.30;0.98;;;10.60;81.70;;;;;;5065233;28;20023;-70
2023/10/25 02:22:45;;;;;;;1.13;1.02;;;10.60;81.70;;;;;;5064484;28;20028;-70
2023/10/25 02:25:11;;;;;;;1.50;1.10;;;10.60;81.70;;;;;;5069137;28;20085;-70
2023/10/25 02:27:36;;;;;;;0.98;0.77;;;10.60;81.70;;;;;;5082522;28;20580;-70
2023/10/25 02:30:04;;;;;;;1.10;0.80;;;10.60;81.60;;;;;;5069311;28;20025;-70
2023/10/25 02:32:30;;;;;;;1.40;0.93;;;10.50;81.50;;;;;;5067144;28;20068;-70
2023/10/25 02:34:55;;;;;;;1.05;0.93;;;10.50;81.40;;;;;;5067576;28;20060;-70
2023/10/25 02:37:21;;;;;;;1.55;0.95;;;10.50;81.40;;;;;;5068797;28;20059;-70
2023/10/25 02:39:47;;;;;;;1.38;0.95;;;10.50;81.50;;;;;;5069035;28;20039;-69
2023/10/25 02:42:13;;;;;;;3.38;1.60;;;10.50;81.40;;;;;;5068298;28;20096;-69
2023/10/25 02:44:39;;;;;;;0.98;0.90;;;10.50;81.40;;;;;;5070929;28;20475;-69
2023/10/25 02:47:06;;;;;;;1.15;0.98;;;10.50;81.40;;;;;;5070637;28;20040;-69
2023/10/25 02:49:33;;;;;;;1.33;1.10;;;10.40;81.30;;;;;;5082880;28;20028;-69
2023/10/25 02:51:58;;;;;;;0.95;0.75;;;10.40;81.90;;;;;;5063546;28;20487;-69
2023/10/25 02:54:24;;;;;;;1.00;0.70;;;10.40;81.20;;;;;;5075392;28;20111;-69
2023/10/25 02:56:50;;;;;;;1.92;0.95;;;10.40;81.20;;;;;;5073424;28;20093;-69
2023/10/25 02:59:16;;;;;;;1.20;0.88;;;10.30;81.10;;;;;;5067945;28;20128;-63
2023/10/25 03:01:41;;;;;;;1.52;0.73;;;10.30;81.10;;;;;;5063610;28;20086;-63
2023/10/25 03:04:07;;;;;;;0.75;0.68;;;10.30;81.20;;;;;;5069360;28;20033;-63
2023/10/25 03:06:33;;;;;;;0.60;0.60;;;10.30;81.20;;;;;;5067072;28;20066;-62
2023/10/25 03:08:59;;;;;;;0.80;0.80;;;10.30;81.30;;;;;;5069051;28;20024;-63
2023/10/25 03:11:24;;;;;;;1.38;1.13;;;10.30;81.30;;;;;;5073249;28;20391;-63
2023/10/25 03:13:50;;;;;;;1.17;0.70;;;10.30;81.40;;;;;;5069112;28;20045;-62
2023/10/25 03:16:16;;;;;;;2.08;0.98;;;10.30;81.40;;;;;;5070230;28;20479;-62
2023/10/25 03:18:41;;;;;;;1.55;1.08;;;10.30;81.50;;;;;;5067811;28;20677;-63
2023/10/25 03:21:07;;;;;;;1.92;1.30;;;10.30;81.40;;;;;;5061474;28;20056;-62
2023/10/25 03:23:33;;;;;;;4.78;1.10;;;10.30;81.50;;;;;;5070306;28;20040;-63
2023/10/25 03:26:04;;;;;;;3.88;0.60;;;10.30;81.60;;;;;;5070546;28;20048;-63
2023/10/25 03:28:30;;;;;;;1.00;0.75;;;10.20;81.50;;;;;;5072248;28;20029;-63
2023/10/25 03:30:56;;;;;;;1.88;1.05;;;10.20;81.60;;;;;;5069692;28;20037;-63
2023/10/25 03:33:21;;;;;;;0.80;0.57;;;10.20;81.60;;;;;;5066481;28;20458;-62
2023/10/25 03:35:52;;;;;;;1.30;0.65;;;10.20;81.60;;;;;;5061172;28;20033;-62
2023/10/25 03:38:17;;;;;;;1.35;0.75;;;10.20;81.50;;;;;;5069543;28;20494;-62
2023/10/25 03:40:44;;;;;;;1.67;1.00;;;10.10;81.50;;;;;;5068921;28;20064;-63
2023/10/25 03:43:10;;;;;;;1.05;0.82;;;10.10;81.90;;;;;;5065892;28;20028;-63
2023/10/25 03:45:35;;;;;;;0.80;0.80;;;10.10;81.30;;;;;;5065740;28;20078;-63
2023/10/25 03:48:01;;;;;;;1.20;0.75;;;10.10;81.20;;;;;;5063562;28;20033;-63
2023/10/25 03:50:27;;;;;;;2.92;1.08;;;10.10;81.20;;;;;;5063127;28;20028;-62
2023/10/25 03:52:52;;;;;;;1.50;1.10;;;10.10;81.20;;;;;;5059661;28;20036;-63
2023/10/25 03:55:18;;;;;;;1.45;1.05;;;10.00;81.10;;;;;;5058159;28;20040;-63
2023/10/25 03:57:54;;;;;;;1.02;0.75;;;10.10;81.20;;;;;;5059315;28;20032;-64
2023/10/25 04:00:19;;;;;;;1.15;0.88;;;10.10;81.10;;;;;;5059580;28;20040;-69
2023/10/25 04:02:45;;;;;;;1.20;0.77;;;10.00;81.10;;;;;;5065448;28;20033;-69
2023/10/25 04:05:10;;;;;;;2.00;1.27;;;10.00;81.20;;;;;;5050352;28;20033;-69
2023/10/25 04:07:36;;;;;;;1.25;0.82;;;10.00;81.10;;;;;;5060764;28;20529;-69
2023/10/25 04:10:02;;;;;;;1.35;1.00;;;9.90;81.10;;;;;;5057542;28;20201;-69
2023/10/25 04:12:28;;;;;;;2.10;1.20;;;9.90;81.10;;;;;;5066592;28;20570;-69
2023/10/25 04:14:54;;;;;;;1.58;1.23;;;9.90;81.20;;;;;;5059692;28;20060;-69
2023/10/25 04:17:19;;;;;;;2.08;1.15;;;9.90;81.10;;;;;;5067299;28;20526;-69
2023/10/25 04:19:45;;;;;;;0.95;0.70;;;9.90;81.20;;;;;;5062133;28;20443;-69
2023/10/25 04:22:13;;;;;;;0.98;0.80;;;9.90;81.10;;;;;;5060757;28;20028;-69
2023/10/25 04:24:39;;;;;;;2.80;1.35;;;9.90;81.10;;;;;;5065647;28;20406;-69
2023/10/25 04:27:04;;;;;;;0.82;0.82;;;9.90;81.10;;;;;;5060373;28;20107;-69
2023/10/25 04:29:30;;;;;;;2.17;1.25;;;9.80;81.10;;;;;;5065983;28;20514;-69
2023/10/25 04:31:56;;;;;;;3.47;0.95;;;9.80;81.00;;;;;;5065687;28;20037;-69
2023/10/25 04:34:22;;;;;;;2.17;0.85;;;9.80;80.90;;;;;;5063785;28;20037;-69
2023/10/25 04:36:48;;;;;;;2.60;0.90;;;9.80;81.00;;;;;;5043997;28;20036;-69
2023/10/25 04:39:13;;;;;;;2.67;1.00;;;9.80;81.00;;;;;;5061257;28;20029;-69
2023/10/25 04:41:40;;;;;;;1.33;0.63;;;9.80;81.00;;;;;;5047888;28;20400;-69
2023/10/25 04:44:06;;;;;;;3.40;0.82;;;9.80;80.90;;;;;;5061988;28;20037;-70
2023/10/25 04:46:32;;;;;;;1.30;1.20;;;9.80;80.90;;;;;;5072819;28;20028;-69
2023/10/25 04:48:58;;;;;;;2.70;0.80;;;9.80;81.00;;;;;;5069138;28;20498;-69
2023/10/25 04:51:23;;;;;;;1.55;1.17;;;9.80;81.10;;;;;;5068681;28;20032;-69
2023/10/25 04:53:49;;;;;;;0.80;0.77;;;9.80;81.10;;;;;;5069476;28;20505;-69
2023/10/25 04:56:15;;;;;;;1.70;1.20;;;9.80;81.20;;;;;;5077674;28;20350;-69
2023/10/25 04:58:40;;;;;;;3.13;1.15;;;9.80;81.10;;;;;;5065072;28;20403;-69
2023/10/25 05:01:15;;;;;;;2.75;1.25;;;9.80;81.10;;;;;;5075449;28;20513;-70
2023/10/25 05:03:44;;;;;;;2.08;1.45;;;9.90;81.20;;;;;;5071534;28;20032;-70
2023/10/25 05:06:10;;;;;;;1.92;0.95;;;9.80;81.30;;;;;;5070999;28;20039;-70
2023/10/25 05:08:36;;;;;;;1.83;0.82;;;9.90;81.40;;;;;;5084914;28;20064;-70
2023/10/25 05:11:05;;;;;;;4.47;1.15;;;9.90;81.40;;;;;;5074607;28;20059;-70
2023/10/25 05:13:31;;;;;;;2.28;0.75;;;9.90;81.40;;;;;;5065248;28;20394;-69
2023/10/25 05:15:57;;;;;;;3.22;1.20;;;10.00;81.50;;;;;;5069130;28;20056;-70
2023/10/25 05:18:23;;;;;;;1.75;1.10;;;10.00;81.50;;;;;;5070461;28;20146;-70
2023/10/25 05:20:57;;;;;;;4.13;1.50;;;10.00;81.70;;;;;;5070024;28;20035;-70
2023/10/25 05:23:30;;;;;;;1.13;0.73;;;10.00;81.70;;;;;;5065354;28;20436;-70
2023/10/25 05:26:01;;;;;;;0.75;0.75;;;10.00;81.80;;;;;;5070822;28;20141;-70
2023/10/25 05:28:28;;;;;;;0.77;0.77;;;10.00;81.70;;;;;;5072379;28;20060;-70
2023/10/25 05:30:57;;;;;;;2.55;1.20;;;10.00;81.70;;;;;;5067914;28;20047;-70
2023/10/25 05:33:24;;;;;;;3.03;1.00;;;10.10;81.70;;;;;;5068575;28;20132;-70
2023/10/25 05:35:50;;;;;;;1.60;1.08;;;10.10;81.80;;;;;;5068224;28;20025;-70
2023/10/25 05:38:15;;;;;;;1.90;1.05;;;10.10;81.80;;;;;;5066118;28;20395;-70
2023/10/25 05:40:42;;;;;;;2.72;1.10;;;10.10;81.90;;;;;;5071054;28;20386;-70
2023/10/25 05:43:13;;;;;;;0.93;0.90;;;10.10;81.90;;;;;;5068883;28;20035;-70
2023/10/25 05:45:39;;;;;;;2.28;1.17;;;10.10;81.90;;;;;;5071072;28;20046;-70
2023/10/25 05:48:09;;;;;;;1.98;0.88;;;10.20;82.00;;;;;;5066043;28;20489;-63
2023/10/25 05:50:36;;;;;;;2.05;1.23;;;10.20;82.00;;;;;;5066746;28;20466;-63
2023/10/25 05:53:02;;;;;;;2.03;1.02;;;10.20;82.00;;;;;;5064883;28;20090;-63
2023/10/25 05:55:28;;;;;;;1.00;0.82;;;10.20;82.10;;;;;;5067179;28;20028;-63
2023/10/25 05:57:54;;;;;;;3.60;1.38;;;10.20;82.10;;;;;;5066179;28;20027;-63
2023/10/25 06:00:20;;;;;;;3.22;1.35;;;10.30;82.10;;;;;;5072236;28;20387;-64
2023/10/25 06:02:49;;;;;;;1.35;1.10;;;10.30;82.10;;;;;;5074292;28;20026;-63
2023/10/25 06:05:17;;;;;;;3.20;1.92;;;10.40;82.10;;;;;;5070640;28;20095;-63
2023/10/25 06:07:43;;;;;;;2.92;1.15;;;10.40;82.20;;;;;;5065504;28;20021;-63
2023/10/25 06:10:10;;;;;;;0.82;0.82;;;10.40;82.40;;;;;;5060248;28;20509;-69
2023/10/25 06:12:36;;;;;;;2.38;1.38;;;10.40;82.50;;;;;;5069462;28;20012;-72
2023/10/25 06:15:04;;;;;;;1.08;0.95;;;10.40;82.60;;;;;;5067611;28;20041;-71
2023/10/25 06:17:30;;;;;;;1.27;0.93;;;10.40;82.70;;;;;;5071637;28;20028;-71
2023/10/25 06:19:55;;;;;;;3.20;1.95;;;10.50;82.80;;;;;;5066772;28;20035;-65
2023/10/25 06:22:21;;;;;;;1.65;1.15;;;10.50;82.80;;;;;;5064899;28;20039;-63
2023/10/25 06:24:47;;;;;;;1.25;1.13;;;10.50;82.90;;;;;;5068181;28;20067;-63
2023/10/25 06:27:12;;;;;;;1.42;1.23;;;10.60;83.00;;;;;;5069958;28;20039;-63
2023/10/25 06:29:38;;;;;;;2.05;1.05;;;10.60;83.00;;;;;;5067672;28;20037;-63
2023/10/25 06:32:05;;;;;;;3.17;1.50;;;10.60;83.00;;;;;;5064762;28;20080;-63
2023/10/25 06:34:31;;;;;;;0.60;0.60;;;10.70;83.00;;;;;;5071068;28;20090;-62
2023/10/25 06:36:56;;;;;;;1.67;1.25;;;10.70;83.00;;;;;;5060280;28;20459;-64
2023/10/25 06:39:23;;;;;;;0.85;0.85;;;10.70;83.60;;;;;;5070114;28;20128;-62
2023/10/25 06:41:49;;;;;;;2.10;0.90;;;10.80;83.20;;;;;;5066950;28;20025;-63
2023/10/25 06:44:15;;;;;;;1.50;0.90;;;10.80;83.20;;;;;;5067894;28;20107;-62
2023/10/25 06:46:42;;;;;;;2.90;1.40;;;10.80;83.30;;;;;;5071426;28;20037;-62
2023/10/25 06:49:08;;;;;;;1.10;0.80;;;10.90;83.40;;;;;;5066530;28;20032;-62
2023/10/25 06:51:34;;;;;;;4.97;1.10;;;10.90;83.40;;;;;;5070252;28;20036;-62
2023/10/25 06:54:00;;;;;;;1.67;1.23;;;10.90;83.50;;;;;;5067482;28;20043;-61
2023/10/25 06:56:26;;;;;;;1.27;1.17;;;10.90;83.60;;;;;;5069537;28;20024;-62
2023/10/25 06:58:52;;;;;;;1.45;0.90;;;10.90;83.60;;;;;;5064465;28;20076;-63
2023/10/25 07:01:20;;;;;;;1.55;0.95;;;11.00;83.60;;;;;;5066731;28;20494;-62
2023/10/25 07:03:48;;;;;;;2.05;1.38;;;11.00;83.70;;;;;;5070288;28;20029;-69
2023/10/25 07:06:16;;;;;;;1.20;0.80;;;11.00;83.70;;;;;;5072605;28;20081;-68
2023/10/25 07:08:42;;;;;;;1.30;0.95;;;11.10;83.70;;;;;;5067616;28;20039;-62
2023/10/25 07:11:07;;;;;;;2.03;0.88;;;11.10;83.70;;;;;;5070730;28;20579;-62
2023/10/25 07:13:33;;;;;;;2.13;0.80;;;11.10;83.80;;;;;;5073568;28;20160;-62
2023/10/25 07:15:59;;;;;;;1.23;1.10;;;11.20;84.00;;;;;;5069885;28;20172;-63
2023/10/25 07:18:25;;;;;;;5.60;0.98;;;11.20;83.70;;;;;;5062855;28;20020;-62
2023/10/25 07:20:51;;;;;;;1.92;1.17;;;11.30;83.70;;;;;;5070783;28;20025;-63
2023/10/25 07:23:17;;;;;;;0.93;0.90;;;11.30;83.70;;;;;;5059290;28;20400;-63
2023/10/25 07:25:44;;;;;;;1.45;0.85;;;11.40;83.80;;;;;;5075698;28;20500;-63
2023/10/25 07:28:10;;;;;;;1.95;1.08;;;11.40;83.80;;;;;;5069169;28;20388;-63
2023/10/25 07:30:36;;;;;;;2.08;1.17;;;11.40;83.80;;;;;;5068917;28;20495;-63
2023/10/25 07:33:02;;;;;;;0.63;0.63;;;11.50;83.80;;;;;;5069762;28;20037;-63
2023/10/25 07:35:28;;;;;;;2.47;1.23;;;11.50;83.70;;;;;;5065209;28;20089;-63
2023/10/25 07:37:54;;;;;;;1.40;1.02;;;11.70;83.80;;;;;;5069251;28;20028;-63
2023/10/25 07:40:19;;;;;;;1.10;1.00;;;11.70;83.70;;;;;;5069329;28;20021;-63
2023/10/25 07:42:46;;;;;;;1.40;1.10;;;11.70;83.70;;;;;;5065563;28;20021;-62
2023/10/25 07:45:12;;;;;;;0.82;0.65;;;11.80;83.80;;;;;;5067892;28;20016;-63
2023/10/25 07:47:38;;;;;;;1.33;1.00;;;11.90;83.70;;;;;;5068275;28;20032;-63
2023/10/25 07:50:05;;;;;;;2.17;1.10;;;11.90;83.70;;;;;;5071411;28;20470;-63
2023/10/25 07:52:33;;;;;;;3.60;1.27;;;11.90;83.70;;;;;;5079386;28;20032;-62
2023/10/25 07:54:59;;;;;;;1.75;0.80;;;12.00;83.60;;;;;;5061946;28;20028;-63
2023/10/25 07:57:28;;;;;;;1.20;0.98;;;12.00;83.70;;;;;;5059708;28;20040;-62
2023/10/25 07:59:53;;;;;;;0.73;0.65;;;12.00;83.70;;;;;;5061897;28;20039;-62
2023/10/25 08:02:19;;;;;;;3.00;1.38;;;12.10;83.80;;;;;;5062537;28;20021;-62
2023/10/25 08:04:45;;;;;;;1.15;0.90;;;12.10;83.80;;;;;;5071804;28;20072;-62
2023/10/25 08:07:11;;;;;;;0.77;0.77;;;12.10;83.80;;;;;;5069018;28;20074;-62
2023/10/25 08:09:39;;;;;;;2.15;1.23;;;12.10;83.80;;;;;;5062876;28;20102;-62
2023/10/25 08:12:06;;;;;;;2.92;0.85;;;12.10;83.80;;;;;;5070732;28;20032;-62
2023/10/25 08:14:31;;;;;;;1.92;1.15;;;12.10;83.80;;;;;;5068979;28;20044;-62
2023/10/25 08:16:57;;;;;;;1.92;0.80;;;12.10;83.90;;;;;;5072290;28;20029;-63
2023/10/25 08:19:23;;;;;;;1.75;0.80;;;12.10;83.80;;;;;;5065638;28;20538;-63
2023/10/25 08:21:48;;;;;;;1.63;0.90;;;12.20;83.90;;;;;;5066433;28;20051;-63
2023/10/25 08:24:14;;;;;;;1.30;0.88;;;12.10;83.90;;;;;;5064256;28;20028;-63
2023/10/25 08:26:40;;;;;;;0.90;0.68;;;12.20;84.00;;;;;;5069083;28;20426;-62
2023/10/25 08:29:06;;;;;;;0.80;0.68;;;12.20;84.00;;;;;;5069652;28;20039;-62
2023/10/25 08:31:33;;;;;;;1.05;0.88;;;12.20;83.90;;;;;;5060872;28;20112;-63
2023/10/25 08:33:59;;;;;;;1.67;1.00;;;12.20;84.00;;;;;;5067651;28;20033;-62
2023/10/25 08:36:25;;;;;;;1.50;1.00;;;12.20;84.00;;;;;;5067715;28;20035;-62
2023/10/25 08:38:51;;;;;;;3.88;1.35;;;12.20;84.00;;;;;;5065100;28;20033;-62
2023/10/25 08:41:19;;;;;;;1.67;0.95;;;12.20;84.10;;;;;;5068446;28;20543;-62
2023/10/25 08:43:45;;;;;;;1.95;1.10;;;12.20;84.00;;;;;;5061803;28;20469;-63
2023/10/25 08:46:13;;;;;;;1.40;1.10;;;12.20;84.10;;;;;;5068376;28;20032;-63
2023/10/25 08:48:38;;;;;;;2.50;0.80;;;12.20;84.10;;;;;;5070034;28;20039;-63
2023/10/25 08:51:05;;;;;;;1.67;1.10;;;12.20;84.10;;;;;;5061106;28;20032;-62
2023/10/25 08:53:31;;;;;;;1.10;0.88;;;12.20;84.30;;;;;;5066870;28;20037;-62
2023/10/25 08:55:58;;;;;;;2.30;1.05;;;12.30;84.40;;;;;;5064569;28;20039;-63
2023/10/25 08:58:25;;;;;;;2.15;1.42;;;12.30;84.50;;;;;;5059936;28;20102;-63
2023/10/25 09:00:52;;;;;;;2.83;1.08;;;12.30;84.50;;;;;;5060822;28;20020;-69
2023/10/25 09:03:32;;;;;;;2.08;1.33;;;12.30;84.40;;;;;;5060664;28;20480;-68
2023/10/25 09:05:59;;;;;;;2.60;1.50;;;12.40;84.30;;;;;;5061373;28;20446;-68
2023/10/25 09:08:25;;;;;;;1.23;0.90;;;12.40;84.40;;;;;;5059775;28;20021;-68
2023/10/25 09:10:57;;;;;;;9.18;1.63;;;12.50;84.40;;;;;;5052377;28;20479;-68
2023/10/25 09:13:23;;;;;;;;;;;12.50;84.30;;;;;;5055574;28;20033;-69
2023/10/25 09:15:48;;;;;;;1.20;1.00;;;12.50;84.30;;;;;;5052459;28;19917;-68
2023/10/25 09:18:15;;;;;;;1.50;0.88;;;12.50;84.30;;;;;;5058201;28;20130;-68
2023/10/25 09:20:40;;;;;;;1.60;1.15;;;12.60;84.30;;;;;;5056196;28;20025;-62
2023/10/25 09:23:10;;;;;;;1.85;1.25;;;12.60;84.20;;;;;;5045110;28;20041;-63
2023/10/25 09:25:39;;;;;;;2.15;1.30;;;12.60;84.30;;;;;;5050053;28;20032;-63
2023/10/25 09:28:13;;;;;;;1.33;0.85;;;12.60;84.30;;;;;;5056297;28;20044;-63
2023/10/25 09:30:39;;;;;;;3.83;1.42;;;12.60;84.40;;;;;;5066318;28;20028;-63
2023/10/25 09:33:05;;;;;;;2.97;1.05;;;12.60;84.40;;;;;;5053689;28;20080;-63
2023/10/25 09:35:31;;;;;;;1.52;1.05;;;12.60;84.30;;;;;;5058075;28;20037;-63
2023/10/25 09:37:57;;;;;;;1.50;1.27;;;12.60;84.40;;;;;;5055662;28;20020;-63
2023/10/25 09:40:23;;;;;;;3.05;1.55;;;12.70;84.40;;;;;;5065556;28;20036;-63
2023/10/25 09:42:54;;;;;;;4.15;1.08;;;12.70;84.30;;;;;;5067769;28;20617;-68
2023/10/25 09:45:27;;;;;;;1.02;0.93;;;12.70;84.30;;;;;;5050410;28;20053;-68
2023/10/25 09:47:55;;;;;;;1.73;1.10;;;12.70;84.30;;;;;;5054623;28;20585;-68
2023/10/25 09:50:35;;;;;;;3.28;1.23;;;12.70;84.40;;;;;;5066026;28;20317;-63
2023/10/25 09:53:10;;;;;;;1.80;1.20;;;12.70;84.40;;;;;;5065470;28;20098;-63
2023/10/25 09:55:40;;;;;;;2.17;1.20;;;12.70;84.60;;;;;;5062924;28;20534;-63
2023/10/25 09:58:10;;;;;;;1.80;1.23;;;12.80;84.60;;;;;;5064790;28;20030;-69
2023/10/25 10:00:36;;;;;;;3.50;2.13;;;12.80;84.60;;;;;;5087350;28;20382;-68
2023/10/25 10:03:37;;;;;;;1.60;0.73;;;12.80;84.70;;;;;;5065573;28;20097;-69
2023/10/25 10:06:35;;;;;;;1.25;0.70;;;12.80;84.60;;;;;;5059266;28;20036;-68
2023/10/25 10:09:30;;;;;;;1.70;1.05;;;12.80;84.70;;;;;;5058341;28;20511;-69
2023/10/25 10:12:06;;;;;;;2.63;1.30;;;12.80;84.70;;;;;;5064798;28;20043;-68
2023/10/25 10:14:37;;;;;;;1.35;0.90;;;12.80;84.70;;;;;;5058847;28;20542;-69
2023/10/25 10:17:17;;;;;;;2.63;1.50;;;12.80;84.70;;;;;;5070373;28;20024;-68
2023/10/25 10:19:49;;;;;;;1.83;1.45;;;12.80;84.70;;;;;;5079167;28;20030;-68
2023/10/25 10:22:18;;;;;;;1.83;1.33;;;12.80;84.80;;;;;;5056957;28;20043;-68
2023/10/25 10:24:53;;;;;;;1.58;0.90;;;12.80;84.70;;;;;;5048274;28;20024;-68
2023/10/25 10:27:26;;;;;;;3.90;1.40;;;12.90;84.80;;;;;;5059668;28;20039;-68
2023/10/25 10:29:52;;;;;;;1.00;0.90;;;12.90;85.40;;;;;;5064664;28;20021;-68
2023/10/25 10:32:18;;;;;;;4.50;1.02;;;12.90;84.80;;;;;;5058451;28;20115;-68
2023/10/25 10:34:48;;;;;;;1.40;1.20;;;12.90;84.80;;;;;;5060341;28;20037;-68
2023/10/25 10:37:21;;;;;;;0.82;0.80;;;12.90;84.70;;;;;;5061298;28;20465;-68
2023/10/25 10:39:56;;;;;;;1.60;1.17;;;12.90;84.80;;;;;;5058271;28;20088;-68
2023/10/25 10:42:30;;;;;;;1.88;1.15;;;13.00;84.80;;;;;;5054646;28;20140;-68
2023/10/25 10:45:11;;;;;;;1.00;0.95;;;12.90;84.80;;;;;;5051558;28;20448;-68
2023/10/25 10:47:43;;;;;;;1.95;1.27;;;12.90;84.90;;;;;;5062665;28;20111;-68
2023/10/25 10:50:21;;;;;;;1.52;0.93;;;12.90;84.90;;;;;;5058544;28;20024;-68
2023/10/25 10:52:50;;;;;;;0.85;0.52;;;12.90;84.90;;;;;;5062242;28;20033;-68
2023/10/25 10:55:20;;;;;;;1.38;0.90;;;12.90;84.90;;;;;;5044258;28;20025;-68
2023/10/25 10:57:47;;;;;;;0.70;0.70;;;12.90;84.90;;;;;;5061622;28;20033;-68
2023/10/25 11:00:16;;;;;;;1.23;0.82;;;12.90;84.90;;;;;;5062515;28;20086;-68
2023/10/25 11:02:46;;;;;;;1.20;0.88;;;12.90;84.90;;;;;;5063772;28;20029;-68
2023/10/25 11:05:15;;;;;;;0.88;0.80;;;12.90;85.00;;;;;;5051006;28;20024;-68
2023/10/25 11:07:42;;;;;;;1.52;0.80;;;12.90;85.00;;;;;;5067129;28;20557;-68
2023/10/25 11:10:08;;;;;;;1.58;0.60;;;13.00;85.00;;;;;;5064155;28;20181;-68
2023/10/25 11:12:34;;;;;;;2.15;0.68;;;13.00;85.00;;;;;;5062917;28;20032;-70
2023/10/25 11:15:07;;;;;;;0.98;0.90;;;13.00;84.90;;;;;;5053837;28;20098;-70
2023/10/25 11:17:33;;;;;;;1.17;1.00;;;13.10;84.90;;;;;;5048374;28;20049;-69
2023/10/25 11:20:00;;;;;;;3.65;1.23;;;13.10;84.90;;;;;;5060270;28;20062;-69
2023/10/25 11:22:26;;;;;;;0.88;0.70;;;13.10;84.90;;;;;;5059796;28;20387;-69
2023/10/25 11:24:54;;;;;;;0.77;0.77;;;13.10;85.50;;;;;;5055972;28;20513;-69
2023/10/25 11:27:20;;;;;;;1.00;0.88;;;13.20;84.90;;;;;;5058869;28;20510;-70
2023/10/25 11:29:48;;;;;;;1.05;0.57;;;13.20;84.90;;;;;;5058686;28;20021;-69
2023/10/25 11:32:15;;;;;;;0.65;0.60;;;13.20;84.90;;;;;;5063449;28;20107;-69
2023/10/25 11:34:46;;;;;;;0.80;0.60;;;13.20;84.90;;;;;;5077744;28;20068;-67
2023/10/25 11:37:12;;;;;;;1.02;0.90;;;13.20;84.90;;;;;;5063485;28;20152;-67
2023/10/25 11:39:54;;;;;;;2.08;1.05;;;13.20;84.90;;;;;;5058620;28;20446;-70
2023/10/25 11:42:19;;;;;;;1.23;0.85;;;13.30;84.90;;;;;;5059693;28;20515;-69
2023/10/25 11:44:46;;;;;;;0.57;0.57;;;13.30;85.00;;;;;;5058434;28;20025;-69
2023/10/25 11:47:20;;;;;;;0.73;0.73;;;13.20;85.00;;;;;;5058701;28;20029;-69
2023/10/25 11:49:51;;;;;;;1.33;0.90;;;13.30;85.00;;;;;;5060517;28;20052;-70
2023/10/25 11:52:23;;;;;;;0.73;0.68;;;13.30;85.00;;;;;;5057840;28;20039;-69
2023/10/25 11:54:55;;;;;;;2.90;0.60;;;13.30;85.10;;;;;;5055506;28;20025;-68
2023/10/25 11:57:24;;;;;;;0.93;0.77;;;13.30;85.00;;;;;;5060681;28;20056;-69
2023/10/25 11:59:51;;;;;;;0.80;0.60;;;13.30;85.00;;;;;;5063738;28;20035;-69
2023/10/25 12:02:24;;;;;;;1.67;0.75;;;13.30;85.00;;;;;;5064714;28;20691;-68
2023/10/25 12:04:50;;;;;;;2.10;1.25;;;13.30;85.10;;;;;;5064481;28;20031;-67
2023/10/25 12:07:16;;;;;;;2.03;0.75;;;13.30;85.10;;;;;;5083672;28;20086;-66
2023/10/25 12:09:42;;;;;;;0.60;0.57;;;13.30;85.20;;;;;;5062107;28;20425;-66
2023/10/25 12:12:09;;;;;;;1.00;0.80;;;13.30;85.30;;;;;;5057347;28;20051;-66
2023/10/25 12:14:35;;;;;;;0.68;0.50;;;13.30;85.30;;;;;;5059631;28;20127;-65
2023/10/25 12:17:01;;;;;;;0.80;0.60;;;13.30;85.40;;;;;;5061054;28;20139;-67
2023/10/25 12:19:26;;;;;;;1.20;0.93;;;13.30;85.40;;;;;;5060040;28;20029;-67
2023/10/25 12:21:58;;;;;;;1.13;0.80;;;13.20;85.40;;;;;;5059305;28;20037;-67
2023/10/25 12:24:25;;;;;;;1.25;0.68;;;13.30;85.40;;;;;;5058921;28;20029;-68
2023/10/25 12:26:51;;;;;;;0.73;0.55;;;13.20;85.40;;;;;;5060409;28;20025;-68
2023/10/25 12:29:17;;;;;;;2.53;1.10;;;13.20;85.50;;;;;;5059128;28;20119;-68
2023/10/25 12:31:43;;;;;;;1.50;0.93;;;13.20;85.60;;;;;;5056712;28;20029;-68
2023/10/25 12:34:09;;;;;;;1.30;0.70;;;13.20;85.60;;;;;;5059501;28;20056;-68
2023/10/25 12:36:35;;;;;;;0.70;0.50;;;13.20;86.20;;;;;;5056140;28;20107;-68
2023/10/25 12:39:01;;;;;;;1.20;1.10;;;13.20;85.70;;;;;;5059833;28;21447;-68
2023/10/25 12:41:26;;;;;;;1.90;0.93;;;13.10;85.70;;;;;;5051737;28;20043;-68
2023/10/25 12:43:52;;;;;;;1.17;0.80;;;13.20;85.90;;;;;;5063477;28;20111;-68
2023/10/25 12:46:17;;;;;;;2.40;0.95;;;13.10;85.80;;;;;;5064228;28;20036;-68
2023/10/25 12:48:43;;;;;;;1.60;1.08;;;13.10;85.90;;;;;;5058955;28;20590;-68